Time;durP1;ratioP1;P1;durP2;ratioP2;P2;SDS_P1;SDS_P2;PMS_P1;PMS_P2;Temp;Humidity;BMP_temperature;BMP_pressure;BME280_temperature;BME280_humidity;BME280_pressure;Samples;Min_cycle;Max_cycle;Signal;HPM_P1;HPM_P2
2023/03/25 00:00:57;;;;;;;33.60;5.68;;;9.80;99.90;;;;;;5032104;28;20029;-76
2023/03/25 00:03:28;;;;;;;31.23;5.18;;;9.80;99.90;;;;;;5033592;28;20061;-76
2023/03/25 00:05:55;;;;;;;26.88;5.30;;;9.80;99.90;;;;;;5022029;28;20029;-76
2023/03/25 00:08:21;;;;;;;41.10;7.28;;;9.70;99.90;;;;;;5032778;28;20049;-76
2023/03/25 00:10:59;;;;;;;36.65;7.03;;;9.70;99.90;;;;;;5032610;28;20507;-76
2023/03/25 00:13:25;;;;;;;35.15;6.05;;;9.70;99.90;;;;;;5033245;28;20024;-76
2023/03/25 00:15:57;;;;;;;41.83;8.50;;;9.60;99.90;;;;;;5027945;28;20077;-76
2023/03/25 00:18:24;;;;;;;27.65;4.97;;;9.60;99.90;;;;;;5033042;28;20033;-76
2023/03/25 00:20:52;;;;;;;32.30;4.80;;;9.60;99.90;;;;;;5032543;28;20077;-76
2023/03/25 00:23:19;;;;;;;32.00;5.00;;;9.60;99.90;;;;;;5032115;28;20037;-76
2023/03/25 00:25:45;;;;;;;27.33;5.05;;;9.60;99.90;;;;;;5031346;28;20079;-76
2023/03/25 00:28:12;;;;;;;34.58;6.22;;;9.60;99.90;;;;;;5032688;28;20041;-76
2023/03/25 00:30:38;;;;;;;30.13;5.53;;;9.60;99.90;;;;;;5028633;28;20025;-76
2023/03/25 00:33:06;;;;;;;28.90;5.10;;;9.60;99.90;;;;;;5032802;28;20077;-76
2023/03/25 00:35:31;;;;;;;37.55;6.15;;;9.60;99.90;;;;;;5026349;28;20484;-76
2023/03/25 00:38:01;;;;;;;22.00;4.88;;;9.50;99.90;;;;;;5032958;28;20037;-76
2023/03/25 00:40:29;;;;;;;31.08;4.97;;;9.50;99.90;;;;;;5021089;28;20025;-76
2023/03/25 00:42:55;;;;;;;25.27;4.80;;;9.40;99.90;;;;;;5020800;28;20064;-76
2023/03/25 00:45:21;;;;;;;33.40;5.10;;;9.40;99.90;;;;;;5028681;28;20079;-76
2023/03/25 00:47:47;;;;;;;27.63;4.93;;;9.40;99.90;;;;;;5031826;28;20049;-76
2023/03/25 00:50:14;;;;;;;23.33;3.78;;;9.40;99.90;;;;;;5031885;28;20093;-76
2023/03/25 00:52:40;;;;;;;23.55;4.65;;;9.50;99.90;;;;;;5014123;28;20100;-76
2023/03/25 00:55:06;;;;;;;26.48;5.15;;;9.50;99.90;;;;;;5029635;28;20048;-76
2023/03/25 00:57:32;;;;;;;21.42;4.93;;;9.50;99.90;;;;;;5030779;28;20449;-76
2023/03/25 00:59:57;;;;;;;29.02;3.97;;;9.60;99.90;;;;;;5031769;28;20120;-76
2023/03/25 01:02:23;;;;;;;27.75;5.68;;;9.60;99.90;;;;;;5029420;28;20084;-76
2023/03/25 01:04:49;;;;;;;30.65;5.20;;;9.70;99.90;;;;;;5029993;28;20021;-76
2023/03/25 01:07:16;;;;;;;30.88;5.30;;;9.60;99.90;;;;;;5033420;28;20406;-76
2023/03/25 01:09:44;;;;;;;26.15;4.80;;;9.60;99.90;;;;;;5040178;28;20028;-76
2023/03/25 01:12:09;;;;;;;27.20;5.15;;;9.60;99.90;;;;;;5044260;28;20132;-76
2023/03/25 01:14:36;;;;;;;25.23;4.07;;;9.60;99.90;;;;;;5011198;28;20067;-76
2023/03/25 01:17:01;;;;;;;29.92;4.90;;;9.60;99.90;;;;;;5026206;28;20033;-75
2023/03/25 01:19:27;;;;;;;35.58;5.57;;;9.60;99.90;;;;;;5022837;28;20052;-76
2023/03/25 01:21:52;;;;;;;29.38;4.97;;;9.60;99.90;;;;;;5029839;28;20041;-76
2023/03/25 01:24:18;;;;;;;31.20;5.20;;;9.70;99.90;;;;;;5018993;28;20048;-76
2023/03/25 01:26:44;;;;;;;34.10;4.60;;;9.70;99.90;;;;;;5029646;28;20048;-76
2023/03/25 01:29:16;;;;;;;24.85;3.83;;;9.70;99.90;;;;;;5014091;28;20458;-76
2023/03/25 01:31:42;;;;;;;29.80;4.93;;;9.70;99.90;;;;;;5025265;28;20090;-76
2023/03/25 01:34:08;;;;;;;30.75;4.28;;;9.70;99.90;;;;;;5031051;28;20049;-75
2023/03/25 01:36:36;;;;;;;31.48;5.13;;;9.70;99.90;;;;;;5029367;28;20029;-76
2023/03/25 01:39:04;;;;;;;29.08;4.57;;;9.70;99.90;;;;;;5022920;28;20136;-75
2023/03/25 01:41:31;;;;;;;37.35;6.78;;;9.70;99.90;;;;;;5024787;28;20037;-75
2023/03/25 01:44:29;;;;;;;35.83;5.82;;;9.60;99.90;;;;;;5028011;28;20116;-76
2023/03/25 01:47:00;;;;;;;31.35;4.40;;;9.60;99.90;;;;;;4969516;28;20054;-76
2023/03/25 01:49:25;;;;;;;35.35;5.35;;;9.60;99.90;;;;;;5026827;28;20026;-76
2023/03/25 01:52:00;;;;;;;35.17;5.32;;;9.60;99.90;;;;;;5016903;28;20042;-76
2023/03/25 01:54:26;;;;;;;30.25;6.03;;;9.60;99.90;;;;;;5027359;28;20026;-76
2023/03/25 01:56:53;;;;;;;32.67;6.93;;;9.60;99.90;;;;;;5030378;28;20041;-76
2023/03/25 01:59:23;;;;;;;37.20;6.03;;;9.60;99.90;;;;;;5022267;28;20470;-76
2023/03/25 02:01:50;;;;;;;33.95;6.05;;;9.60;99.90;;;;;;5031378;28;20037;-76
2023/03/25 02:04:26;;;;;;;21.75;5.22;;;9.60;99.90;;;;;;5030073;28;20401;-76
2023/03/25 02:06:52;;;;;;;34.35;6.93;;;9.60;99.90;;;;;;5023118;28;20038;-76
2023/03/25 02:09:21;;;;;;;37.22;5.22;;;9.60;99.90;;;;;;5023593;28;20025;-76
2023/03/25 02:11:47;;;;;;;38.90;6.40;;;9.60;99.90;;;;;;5027860;28;20057;-76
2023/03/25 02:14:17;;;;;;;38.17;5.07;;;9.50;99.90;;;;;;5029306;28;20065;-76
2023/03/25 02:17:06;;;;;;;33.80;5.10;;;9.50;99.90;;;;;;5034298;28;20064;-76
2023/03/25 02:19:54;;;;;;;36.28;5.10;;;9.50;99.90;;;;;;5034782;28;20033;-76
2023/03/25 02:22:48;;;;;;;34.72;5.05;;;9.50;99.90;;;;;;5023956;28;20032;-76
2023/03/25 02:25:35;;;;;;;32.20;6.60;;;9.50;99.90;;;;;;5032168;28;20033;-76
2023/03/25 02:28:24;;;;;;;38.28;5.10;;;9.40;99.90;;;;;;5034705;28;20045;-76
2023/03/25 02:31:15;;;;;;;35.72;5.00;;;9.40;99.90;;;;;;5031702;28;20030;-76
2023/03/25 02:34:07;;;;;;;32.33;5.53;;;9.40;99.90;;;;;;5034522;28;20029;-76
2023/03/25 02:37:11;;;;;;;;;;;9.40;99.90;;;;;;5021480;28;20029;-76
2023/03/25 02:39:51;;;;;;;33.33;5.15;;;9.40;99.90;;;;;;4972115;28;19950;-76
2023/03/25 02:42:25;;;;;;;42.40;5.90;;;9.50;99.90;;;;;;4973208;28;20118;-76
2023/03/25 02:44:58;;;;;;;41.03;6.13;;;9.40;99.90;;;;;;5010127;28;20124;-76
2023/03/25 02:47:30;;;;;;;31.33;5.55;;;9.40;99.90;;;;;;5033955;28;20049;-76
2023/03/25 02:50:03;;;;;;;42.78;5.68;;;9.40;99.90;;;;;;5015741;28;20033;-76
2023/03/25 02:52:36;;;;;;;40.90;6.30;;;9.30;99.90;;;;;;5020614;28;20029;-76
2023/03/25 02:55:09;;;;;;;32.25;5.22;;;9.40;99.90;;;;;;5033516;28;20498;-76
2023/03/25 02:57:40;;;;;;;50.05;6.35;;;9.30;99.90;;;;;;5030940;28;20036;-75
2023/03/25 03:00:14;;;;;;;28.85;5.63;;;9.30;99.90;;;;;;5033427;28;20070;-76
2023/03/25 03:03:02;;;;;;;38.67;6.00;;;9.40;99.90;;;;;;5033725;28;20036;-76
2023/03/25 03:05:30;;;;;;;48.47;7.35;;;9.40;99.90;;;;;;5027685;28;20033;-76
2023/03/25 03:08:13;;;;;;;40.60;6.18;;;9.40;99.90;;;;;;5033962;28;20060;-76
2023/03/25 03:11:11;;;;;;;43.15;5.95;;;9.30;99.90;;;;;;5021496;28;20028;-76
2023/03/25 03:13:56;;;;;;;45.08;7.47;;;9.30;99.90;;;;;;5033538;28;20042;-76
2023/03/25 03:17:00;;;;;;;37.13;5.90;;;9.30;99.90;;;;;;5033412;28;20079;-76
2023/03/25 03:19:38;;;;;;;41.65;7.60;;;9.20;99.90;;;;;;5020719;28;20402;-76
2023/03/25 03:22:12;;;;;;;39.95;6.60;;;9.20;99.90;;;;;;5034334;28;20087;-76
2023/03/25 03:25:09;;;;;;;45.20;7.20;;;9.20;99.90;;;;;;5027674;28;20394;-76
2023/03/25 03:28:13;;;;;;;41.83;7.30;;;9.20;99.90;;;;;;5025250;28;20136;-75
2023/03/25 03:30:47;;;;;;;43.90;6.57;;;9.10;99.90;;;;;;5027219;28;20029;-76
2023/03/25 03:33:39;;;;;;;30.38;5.90;;;9.10;99.90;;;;;;5033780;28;20164;-76
2023/03/25 03:36:14;;;;;;;;;;;9.20;99.90;;;;;;5034424;28;20485;-76
2023/03/25 03:38:45;;;;;;;47.70;7.43;;;9.20;99.90;;;;;;5034143;28;19912;-76
2023/03/25 03:41:16;;;;;;;33.08;6.03;;;9.20;99.90;;;;;;5015289;28;20377;-76
2023/03/25 03:43:50;;;;;;;42.33;6.38;;;9.10;99.90;;;;;;5033548;28;20083;-76
2023/03/25 03:46:31;;;;;;;41.28;6.10;;;9.20;99.90;;;;;;5028611;28;20038;-76
2023/03/25 03:49:00;;;;;;;41.38;6.63;;;9.10;99.90;;;;;;5023857;28;20041;-76
2023/03/25 03:51:35;;;;;;;40.78;7.40;;;9.10;99.90;;;;;;5031453;28;20126;-76
2023/03/25 03:54:07;;;;;;;42.70;7.45;;;9.10;99.90;;;;;;5033395;28;20030;-76
2023/03/25 03:56:40;;;;;;;35.88;7.40;;;9.10;99.90;;;;;;5033313;28;20089;-76
2023/03/25 03:59:40;;;;;;;43.45;7.70;;;9.10;99.90;;;;;;5014913;28;20041;-76
2023/03/25 04:02:43;;;;;;;42.22;7.95;;;9.10;99.90;;;;;;5019490;28;20037;-76
2023/03/25 04:05:18;;;;;;;46.30;5.70;;;9.10;99.90;;;;;;5030864;28;20029;-78
2023/03/25 04:07:59;;;;;;;42.63;6.75;;;9.10;99.90;;;;;;5027791;28;20440;-77
2023/03/25 04:10:44;;;;;;;39.22;6.13;;;9.10;99.90;;;;;;5030625;28;20484;-76
2023/03/25 04:13:13;;;;;;;38.67;6.68;;;9.10;99.90;;;;;;5029653;28;20033;-76
2023/03/25 04:15:40;;;;;;;36.53;5.88;;;9.10;99.90;;;;;;5013043;28;20473;-76
2023/03/25 04:18:05;;;;;;;48.58;7.13;;;9.10;99.90;;;;;;5031481;28;20799;-76
2023/03/25 04:20:35;;;;;;;48.05;8.60;;;9.20;99.90;;;;;;5030356;28;20090;-76
2023/03/25 04:23:03;;;;;;;36.22;6.07;;;9.20;99.90;;;;;;5027697;28;20552;-76
2023/03/25 04:25:31;;;;;;;40.58;6.47;;;9.20;99.90;;;;;;5029667;28;20037;-76
2023/03/25 04:27:57;;;;;;;46.05;6.80;;;9.20;99.90;;;;;;5028549;28;20037;-76
2023/03/25 04:30:24;;;;;;;40.67;6.07;;;9.20;99.90;;;;;;5031645;28;20030;-77
2023/03/25 04:32:51;;;;;;;32.65;6.13;;;9.20;99.90;;;;;;5030276;28;20041;-76
2023/03/25 04:35:18;;;;;;;36.67;5.28;;;9.20;99.90;;;;;;5032046;28;20053;-76
2023/03/25 04:37:45;;;;;;;33.28;5.82;;;9.20;99.90;;;;;;5028905;28;20433;-76
2023/03/25 04:40:17;;;;;;;42.15;6.25;;;9.20;99.90;;;;;;5031610;28;20076;-76
2023/03/25 04:42:45;;;;;;;32.83;5.97;;;9.20;99.90;;;;;;5031424;28;20029;-76
2023/03/25 04:45:15;;;;;;;29.40;5.63;;;9.30;99.90;;;;;;5030293;28;20056;-77
2023/03/25 04:47:44;;;;;;;34.75;6.15;;;9.20;99.90;;;;;;5030774;28;20037;-77
2023/03/25 04:50:35;;;;;;;38.28;5.72;;;9.20;99.90;;;;;;5030523;28;20036;-77
2023/03/25 04:53:00;;;;;;;30.17;5.13;;;9.20;99.90;;;;;;5031230;28;20133;-77
2023/03/25 04:55:27;;;;;;;35.10;5.07;;;9.10;99.90;;;;;;5031542;28;20533;-77
2023/03/25 04:57:53;;;;;;;33.53;4.93;;;9.10;99.90;;;;;;5028919;28;20025;-76
2023/03/25 05:00:22;;;;;;;36.83;6.35;;;9.10;99.90;;;;;;5029941;28;20112;-76
2023/03/25 05:02:51;;;;;;;33.88;5.20;;;9.00;99.90;;;;;;5031991;28;20390;-76
2023/03/25 05:05:19;;;;;;;42.65;7.25;;;9.00;99.90;;;;;;5033128;28;20037;-75
2023/03/25 05:07:48;;;;;;;33.20;7.13;;;9.00;99.90;;;;;;5025643;28;20052;-75
2023/03/25 05:10:15;;;;;;;34.08;8.05;;;9.00;99.90;;;;;;5030351;28;20083;-75
2023/03/25 05:12:41;;;;;;;40.13;7.40;;;8.90;99.90;;;;;;5026492;28;20033;-77
2023/03/25 05:15:08;;;;;;;39.10;7.55;;;8.90;99.90;;;;;;5025534;28;20398;-77
2023/03/25 05:17:34;;;;;;;38.00;10.32;;;8.90;99.90;;;;;;5028135;28;20033;-75
2023/03/25 05:20:00;;;;;;;32.38;7.18;;;8.90;99.90;;;;;;5026223;28;20053;-75
2023/03/25 05:22:25;;;;;;;33.83;8.02;;;9.00;99.90;;;;;;5028683;28;20104;-76
2023/03/25 05:24:53;;;;;;;37.67;6.78;;;9.00;99.90;;;;;;5028577;28;20717;-76
2023/03/25 05:27:19;;;;;;;30.27;7.70;;;9.10;99.90;;;;;;5019424;28;20045;-76
2023/03/25 05:29:45;;;;;;;28.35;6.60;;;9.10;99.90;;;;;;5027798;28;20021;-76
2023/03/25 05:32:16;;;;;;;36.03;6.28;;;9.20;99.90;;;;;;5031399;28;20076;-76
2023/03/25 05:34:46;;;;;;;36.67;6.80;;;9.20;99.90;;;;;;5032053;28;20037;-76
2023/03/25 05:37:14;;;;;;;25.77;5.78;;;9.30;99.90;;;;;;5031071;28;20072;-76
2023/03/25 05:39:39;;;;;;;32.28;5.47;;;9.30;99.90;;;;;;5021766;28;20485;-75
2023/03/25 05:42:05;;;;;;;31.48;5.93;;;9.30;99.90;;;;;;5030359;28;20029;-76
2023/03/25 05:44:31;;;;;;;24.92;4.80;;;9.30;99.90;;;;;;5030322;28;20428;-76
2023/03/25 05:47:00;;;;;;;39.63;7.65;;;9.40;99.90;;;;;;5014058;28;20053;-75
2023/03/25 05:49:26;;;;;;;32.58;5.07;;;9.40;99.90;;;;;;5031609;28;20034;-75
2023/03/25 05:51:54;;;;;;;32.53;5.35;;;9.40;99.90;;;;;;5030677;28;20030;-76
2023/03/25 05:54:27;;;;;;;30.33;5.13;;;9.40;99.90;;;;;;5020743;28;20470;-76
2023/03/25 05:56:52;;;;;;;33.42;5.93;;;9.40;99.90;;;;;;5030838;28;20042;-75
2023/03/25 05:59:19;;;;;;;31.73;6.50;;;9.40;99.90;;;;;;5027642;28;20091;-76
2023/03/25 06:01:46;;;;;;;30.17;4.80;;;9.40;99.90;;;;;;5029932;28;20033;-76
2023/03/25 06:04:16;;;;;;;37.63;7.18;;;9.30;99.90;;;;;;5031863;28;20401;-76
2023/03/25 06:06:42;;;;;;;32.15;5.60;;;9.30;99.90;;;;;;5031563;28;20030;-76
2023/03/25 06:09:07;;;;;;;33.00;6.45;;;9.30;99.90;;;;;;5021982;28;20041;-75
2023/03/25 06:11:36;;;;;;;36.83;6.38;;;9.30;99.90;;;;;;5030623;28;20564;-76
2023/03/25 06:14:03;;;;;;;31.08;6.20;;;9.20;99.90;;;;;;5032102;28;20065;-76
2023/03/25 06:16:30;;;;;;;37.05;7.63;;;9.20;99.90;;;;;;5030875;28;20039;-76
2023/03/25 06:18:58;;;;;;;33.55;5.97;;;9.20;99.90;;;;;;5031487;28;20100;-76
2023/03/25 06:21:25;;;;;;;34.97;6.85;;;9.30;99.90;;;;;;5025784;28;20375;-76
2023/03/25 06:23:52;;;;;;;38.45;7.85;;;9.30;99.90;;;;;;5030694;28;20037;-76
2023/03/25 06:26:20;;;;;;;37.50;7.75;;;9.30;99.90;;;;;;5027955;28;20112;-76
2023/03/25 06:28:46;;;;;;;35.55;6.78;;;9.30;99.90;;;;;;5031729;28;20033;-76
2023/03/25 06:31:21;;;;;;;38.08;6.40;;;9.30;99.90;;;;;;5027577;28;20033;-76
2023/03/25 06:33:48;;;;;;;29.05;5.68;;;9.40;99.90;;;;;;5031783;28;20030;-76
2023/03/25 06:36:19;;;;;;;34.22;4.90;;;9.40;99.90;;;;;;5030269;28;20038;-77
2023/03/25 06:38:49;;;;;;;31.23;5.70;;;9.50;99.90;;;;;;5031734;28;20049;-77
2023/03/25 06:41:19;;;;;;;32.42;4.95;;;9.50;99.90;;;;;;5031294;28;20128;-77
2023/03/25 06:43:45;;;;;;;25.17;4.93;;;9.60;99.90;;;;;;5031012;28;20029;-77
2023/03/25 06:46:11;;;;;;;33.88;5.53;;;9.60;99.90;;;;;;5031913;28;20083;-77
2023/03/25 06:48:37;;;;;;;26.83;4.95;;;9.70;99.90;;;;;;5031753;28;20018;-76
2023/03/25 06:51:03;;;;;;;31.58;4.93;;;9.80;99.90;;;;;;5022914;28;20391;-77
2023/03/25 06:53:28;;;;;;;25.98;4.32;;;9.80;99.90;;;;;;5024668;28;20038;-77
2023/03/25 06:55:56;;;;;;;29.27;4.28;;;9.80;99.90;;;;;;5031841;28;20024;-76
2023/03/25 06:58:22;;;;;;;28.17;5.70;;;9.90;99.90;;;;;;5014279;28;20080;-76
2023/03/25 07:00:53;;;;;;;29.80;5.60;;;9.80;99.90;;;;;;5028449;28;20030;-77
2023/03/25 07:03:19;;;;;;;30.00;5.50;;;9.90;99.90;;;;;;5035199;28;20040;-76
2023/03/25 07:05:46;;;;;;;28.88;4.18;;;9.90;99.90;;;;;;5034848;28;20026;-77
2023/03/25 07:08:12;;;;;;;25.20;4.03;;;9.90;99.90;;;;;;5034519;28;20128;-76
2023/03/25 07:10:37;;;;;;;28.42;5.40;;;10.00;99.90;;;;;;5032677;28;20100;-76
2023/03/25 07:13:03;;;;;;;29.48;5.13;;;10.00;99.90;;;;;;5033377;28;20049;-75
2023/03/25 07:15:28;;;;;;;35.00;6.88;;;10.10;99.90;;;;;;5034524;28;20030;-76
2023/03/25 07:17:54;;;;;;;32.33;6.53;;;10.10;99.90;;;;;;5034457;28;20025;-75
2023/03/25 07:20:20;;;;;;;27.85;5.88;;;10.10;99.90;;;;;;5033936;28;20378;-75
2023/03/25 07:22:45;;;;;;;29.95;5.15;;;10.10;99.90;;;;;;5034656;28;20021;-75
2023/03/25 07:25:11;;;;;;;26.50;4.93;;;10.10;99.90;;;;;;5035126;28;20026;-75
2023/03/25 07:27:36;;;;;;;32.10;5.80;;;10.20;99.90;;;;;;5033710;28;20048;-75
2023/03/25 07:30:03;;;;;;;25.05;6.47;;;10.20;99.90;;;;;;5034620;28;20029;-75
2023/03/25 07:32:29;;;;;;;30.85;7.30;;;10.30;99.90;;;;;;5032661;28;20509;-75
2023/03/25 07:34:54;;;;;;;24.05;5.63;;;10.40;99.90;;;;;;5033972;28;20128;-75
2023/03/25 07:37:20;;;;;;;29.48;6.82;;;10.60;99.90;;;;;;5034368;28;20037;-75
2023/03/25 07:39:45;;;;;;;28.13;6.57;;;10.70;99.90;;;;;;5034263;28;20397;-75
2023/03/25 07:42:11;;;;;;;31.40;8.00;;;10.90;99.90;;;;;;5033371;28;20060;-75
2023/03/25 07:44:36;;;;;;;30.27;5.30;;;10.90;99.90;;;;;;5023953;28;20399;-74
2023/03/25 07:47:02;;;;;;;24.23;5.25;;;11.00;99.90;;;;;;5020302;28;20049;-75
2023/03/25 07:49:28;;;;;;;21.65;5.25;;;11.10;99.90;;;;;;5034117;28;20409;-75
2023/03/25 07:51:53;;;;;;;28.75;4.97;;;11.10;99.90;;;;;;5034121;28;20041;-75
2023/03/25 07:54:21;;;;;;;28.33;6.72;;;11.00;99.90;;;;;;5028001;28;20029;-75
2023/03/25 07:56:46;;;;;;;29.00;6.90;;;10.90;99.90;;;;;;5014371;28;20042;-74
2023/03/25 07:59:12;;;;;;;32.33;8.23;;;11.00;99.90;;;;;;5023865;28;20025;-75
2023/03/25 08:01:37;;;;;;;23.90;5.07;;;11.20;99.90;;;;;;5030108;28;20465;-75
2023/03/25 08:04:03;;;;;;;23.90;5.93;;;11.60;99.90;;;;;;5033115;28;20124;-75
2023/03/25 08:06:29;;;;;;;35.95;8.90;;;11.80;99.90;;;;;;5033463;28;20196;-75
2023/03/25 08:08:54;;;;;;;26.50;5.18;;;12.00;99.90;;;;;;5033116;28;20122;-75
2023/03/25 08:11:20;;;;;;;30.13;7.22;;;12.20;99.90;;;;;;5018390;28;20432;-75
2023/03/25 08:13:46;;;;;;;23.70;4.63;;;12.50;99.90;;;;;;5022351;28;20478;-75
2023/03/25 08:16:13;;;;;;;25.05;6.05;;;12.40;99.90;;;;;;5032882;28;20193;-75
2023/03/25 08:18:43;;;;;;;24.35;4.45;;;12.20;99.90;;;;;;5033080;28;20037;-75
2023/03/25 08:21:10;;;;;;;22.17;4.43;;;12.10;99.90;;;;;;5030679;28;20057;-75
2023/03/25 08:23:35;;;;;;;19.40;4.70;;;12.00;99.90;;;;;;5033696;28;20041;-75
2023/03/25 08:26:01;;;;;;;17.52;4.18;;;12.10;99.90;;;;;;5033436;28;20032;-75
2023/03/25 08:28:27;;;;;;;26.30;5.30;;;12.20;99.90;;;;;;5032959;28;20501;-76
2023/03/25 08:30:56;;;;;;;29.77;4.32;;;12.20;99.90;;;;;;5031129;28;20057;-76
2023/03/25 08:33:26;;;;;;;21.20;4.03;;;12.20;99.90;;;;;;5019553;28;20060;-75
2023/03/25 08:35:51;;;;;;;24.25;4.13;;;12.10;99.90;;;;;;5031021;28;20032;-75
2023/03/25 08:38:17;;;;;;;25.95;5.45;;;12.00;99.90;;;;;;5030274;28;20029;-75
2023/03/25 08:40:43;;;;;;;22.52;5.03;;;11.90;99.90;;;;;;5032131;28;20096;-75
2023/03/25 08:43:10;;;;;;;28.20;4.65;;;11.70;99.90;;;;;;5031018;28;20033;-76
2023/03/25 08:45:35;;;;;;;26.67;5.90;;;11.60;99.90;;;;;;5024348;28;20544;-76
2023/03/25 08:48:02;;;;;;;25.00;4.15;;;11.50;99.90;;;;;;5031773;28;20117;-76
2023/03/25 08:50:28;;;;;;;31.88;4.95;;;11.40;99.90;;;;;;5032063;28;20030;-75
2023/03/25 08:52:56;;;;;;;20.83;4.90;;;11.50;99.90;;;;;;5032498;28;20391;-76
2023/03/25 08:55:23;;;;;;;29.30;4.47;;;11.60;99.90;;;;;;5030721;28;20029;-76
2023/03/25 08:57:48;;;;;;;22.80;4.43;;;11.60;99.90;;;;;;5032032;28;20458;-76
2023/03/25 09:00:15;;;;;;;26.25;4.15;;;11.80;99.90;;;;;;5028469;28;20026;-76
2023/03/25 09:02:41;;;;;;;26.67;4.97;;;11.80;99.90;;;;;;5027407;28;20335;-76
2023/03/25 09:05:09;;;;;;;23.42;4.40;;;11.80;99.90;;;;;;5031748;28;20480;-76
2023/03/25 09:07:35;;;;;;;27.35;5.03;;;11.80;99.90;;;;;;5030667;28;20481;-75
2023/03/25 09:10:01;;;;;;;19.08;4.55;;;11.70;99.90;;;;;;5026624;28;20112;-76
2023/03/25 09:12:27;;;;;;;23.02;6.85;;;11.80;99.90;;;;;;5029992;28;20025;-75
2023/03/25 09:14:52;;;;;;;33.15;6.63;;;11.90;99.90;;;;;;5028383;28;20542;-76
2023/03/25 09:17:19;;;;;;;24.67;6.63;;;11.90;99.90;;;;;;5020995;28;20113;-76
2023/03/25 09:19:45;;;;;;;35.15;8.07;;;11.80;99.90;;;;;;5027275;28;20040;-76
2023/03/25 09:22:10;;;;;;;30.73;7.10;;;11.80;99.90;;;;;;5025222;28;20033;-76
2023/03/25 09:24:37;;;;;;;33.10;7.55;;;11.80;99.90;;;;;;5028632;28;20400;-76
2023/03/25 09:27:03;;;;;;;28.20;5.35;;;11.90;99.90;;;;;;5005940;28;20050;-75
2023/03/25 09:29:29;;;;;;;14.18;3.25;;;12.00;99.90;;;;;;5028341;28;20397;-76
2023/03/25 09:31:58;;;;;;;20.70;4.65;;;12.00;99.90;;;;;;5026229;28;20045;-76
2023/03/25 09:34:25;;;;;;;18.40;4.85;;;12.00;99.90;;;;;;5024679;28;20469;-75
2023/03/25 09:36:51;;;;;;;22.60;4.82;;;11.90;99.90;;;;;;5032020;28;20022;-75
2023/03/25 09:39:16;;;;;;;24.08;4.70;;;12.00;99.90;;;;;;5032499;28;20070;-76
2023/03/25 09:42:04;;;;;;;25.30;5.00;;;12.20;99.90;;;;;;5026135;28;20045;-76
2023/03/25 09:44:50;;;;;;;16.52;3.85;;;12.40;99.90;;;;;;5032739;28;20029;-76
2023/03/25 09:47:19;;;;;;;33.72;4.55;;;12.70;99.90;;;;;;5030919;28;20052;-75
2023/03/25 09:49:52;;;;;;;23.45;4.53;;;13.20;99.90;;;;;;5031162;28;20037;-76
2023/03/25 09:52:27;;;;;;;27.52;4.43;;;13.50;99.90;;;;;;5017316;28;20057;-76
2023/03/25 09:55:01;;;;;;;27.75;4.53;;;13.80;99.90;;;;;;5023988;28;20496;-75
2023/03/25 09:57:30;;;;;;;29.02;6.40;;;14.20;99.90;;;;;;5032412;28;20408;-76
2023/03/25 09:59:59;;;;;;;23.70;5.40;;;14.40;99.90;;;;;;5028726;28;20077;-75
2023/03/25 10:02:47;;;;;;;28.40;4.55;;;14.00;99.90;;;;;;5027292;28;20116;-76
2023/03/25 10:05:35;;;;;;;28.02;7.63;;;13.70;99.90;;;;;;5021581;28;20037;-76
2023/03/25 10:08:04;;;;;;;26.20;5.95;;;13.60;99.90;;;;;;5030679;28;20038;-76
2023/03/25 10:10:55;;;;;;;34.13;5.65;;;13.80;99.90;;;;;;5019691;28;20034;-76
2023/03/25 10:13:33;;;;;;;27.48;5.22;;;14.40;99.90;;;;;;5027448;28;20044;-76
2023/03/25 10:16:25;;;;;;;30.67;5.22;;;15.40;99.90;;;;;;5030906;28;20033;-76
2023/03/25 10:18:50;;;;;;;21.67;4.80;;;15.90;99.90;;;;;;5019936;28;20038;-76
2023/03/25 10:21:37;;;;;;;20.48;4.43;;;16.50;99.90;;;;;;5020523;28;20354;-76
2023/03/25 10:24:02;;;;;;;22.45;5.03;;;16.60;99.90;;;;;;5029388;28;20025;-76
2023/03/25 10:26:48;;;;;;;21.05;4.03;;;16.70;99.90;;;;;;5028111;28;20054;-76
2023/03/25 10:29:42;;;;;;;23.58;4.53;;;16.50;99.90;;;;;;5030975;28;20065;-76
2023/03/25 10:32:16;;;;;;;23.60;4.28;;;16.00;99.90;;;;;;4992146;28;20372;-76
2023/03/25 10:34:49;;;;;;;24.90;4.65;;;15.60;99.90;;;;;;5030869;28;20470;-76
2023/03/25 10:37:23;;;;;;;21.13;3.78;;;15.50;99.90;;;;;;5033193;28;20029;-76
2023/03/25 10:39:49;;;;;;;26.63;4.38;;;15.70;99.90;;;;;;5032763;28;20462;-76
2023/03/25 10:42:30;;;;;;;20.08;3.80;;;16.00;99.90;;;;;;5031005;28;20030;-76
2023/03/25 10:44:56;;;;;;;24.70;4.93;;;16.00;99.90;;;;;;5033267;28;20055;-75
2023/03/25 10:47:27;;;;;;;27.13;5.85;;;16.00;99.90;;;;;;5033446;28;20679;-75
2023/03/25 10:49:54;;;;;;;29.17;5.67;;;16.00;99.90;;;;;;5032903;28;20031;-75
2023/03/25 10:52:20;;;;;;;35.30;5.65;;;15.50;99.90;;;;;;5031479;28;20274;-75
2023/03/25 10:54:51;;;;;;;22.20;4.13;;;15.30;99.90;;;;;;5034164;28;20409;-75
2023/03/25 10:57:34;;;;;;;29.52;6.32;;;15.50;99.90;;;;;;5030330;28;20470;-76
2023/03/25 11:00:25;;;;;;;20.33;4.25;;;15.90;99.90;;;;;;5029516;28;20034;-75
2023/03/25 11:02:51;;;;;;;23.77;4.78;;;15.80;99.90;;;;;;5027552;28;20033;-75
2023/03/25 11:05:20;;;;;;;28.42;5.13;;;16.30;99.90;;;;;;5027048;28;20087;-75
2023/03/25 11:07:54;;;;;;;30.35;6.72;;;16.30;99.90;;;;;;5031342;28;20052;-75
2023/03/25 11:10:24;;;;;;;21.40;4.80;;;16.60;99.90;;;;;;5033393;28;20029;-75
2023/03/25 11:12:51;;;;;;;27.00;6.80;;;16.90;99.90;;;;;;5019604;28;20037;-75
2023/03/25 11:15:23;;;;;;;31.35;7.25;;;17.00;99.90;;;;;;5009845;28;20061;-75
2023/03/25 11:18:20;;;;;;;30.95;6.18;;;16.90;99.90;;;;;;5024081;28;20481;-75
2023/03/25 11:20:56;;;;;;;28.85;5.53;;;17.00;99.90;;;;;;5025169;28;20053;-75
2023/03/25 11:23:49;;;;;;;25.52;6.53;;;17.30;99.90;;;;;;5027739;28;20049;-75
2023/03/25 11:26:34;;;;;;;31.30;7.13;;;17.90;99.90;;;;;;5014080;28;20565;-75
2023/03/25 11:29:01;;;;;;;31.42;6.18;;;17.90;99.90;;;;;;5031580;28;20033;-75
2023/03/25 11:31:31;;;;;;;26.90;5.43;;;17.50;99.90;;;;;;5030818;28;20591;-75
2023/03/25 11:34:10;;;;;;;33.50;6.13;;;17.20;99.90;;;;;;5023754;28;20036;-75
2023/03/25 11:36:39;;;;;;;24.63;4.72;;;17.00;99.90;;;;;;5024573;28;20026;-75
2023/03/25 11:39:16;;;;;;;27.80;5.57;;;16.60;99.90;;;;;;5029985;28;20036;-75
2023/03/25 11:41:41;;;;;;;33.00;6.13;;;16.20;99.90;;;;;;5023530;28;20489;-76
2023/03/25 11:44:19;;;;;;;28.52;6.28;;;15.90;99.90;;;;;;5024640;28;20038;-74
2023/03/25 11:46:49;;;;;;;27.63;5.97;;;15.80;99.90;;;;;;5032247;28;20048;-74
2023/03/25 11:49:21;;;;;;;30.17;6.18;;;15.80;99.90;;;;;;5021997;28;20037;-74
2023/03/25 11:51:50;;;;;;;23.50;5.43;;;16.10;99.90;;;;;;5032631;28;20033;-74
2023/03/25 11:54:16;;;;;;;25.25;5.43;;;16.50;99.90;;;;;;5033187;28;20488;-73
2023/03/25 11:56:46;;;;;;;26.90;4.85;;;16.80;99.90;;;;;;5027592;28;20401;-74
2023/03/25 11:59:26;;;;;;;28.65;6.20;;;17.10;99.90;;;;;;5029603;28;20079;-74
2023/03/25 12:02:01;;;;;;;28.85;5.43;;;17.30;99.90;;;;;;5026934;28;20029;-74
2023/03/25 12:04:28;;;;;;;21.38;5.85;;;17.40;99.90;;;;;;5031763;28;20080;-73
2023/03/25 12:07:08;;;;;;;23.15;5.53;;;17.20;99.90;;;;;;5024906;28;20052;-73
2023/03/25 12:09:35;;;;;;;26.98;5.50;;;17.20;99.90;;;;;;5033107;28;20030;-74
2023/03/25 12:12:20;;;;;;;24.35;5.03;;;17.40;99.90;;;;;;5025721;28;20025;-73
2023/03/25 12:15:14;;;;;;;29.40;4.55;;;17.30;99.90;;;;;;5029020;28;20493;-73
2023/03/25 12:17:58;;;;;;;26.13;5.72;;;17.40;99.90;;;;;;5024502;28;20029;-73
2023/03/25 12:20:36;;;;;;;32.20;4.68;;;16.80;99.90;;;;;;5022623;28;20109;-73
2023/03/25 12:23:43;;;;;;;25.17;4.25;;;16.20;99.90;;;;;;5033212;28;20401;-73
2023/03/25 12:26:36;;;;;;;21.85;4.82;;;15.90;99.90;;;;;;5023359;28;20037;-73
2023/03/25 12:29:04;;;;;;;28.50;5.50;;;15.80;99.90;;;;;;5032718;28;20128;-74
2023/03/25 12:31:48;;;;;;;23.05;3.78;;;16.20;99.90;;;;;;5029333;28;20069;-73
2023/03/25 12:34:58;;;;;;;21.77;4.07;;;16.70;99.90;;;;;;5026458;28;20026;-73
2023/03/25 12:37:29;;;;;;;29.00;7.63;;;16.60;99.90;;;;;;5030554;28;20467;-73
2023/03/25 12:39:58;;;;;;;22.35;6.78;;;16.40;99.90;;;;;;5031247;28;20390;-74
2023/03/25 12:42:50;;;;;;;26.80;6.47;;;16.50;99.90;;;;;;5026009;28;20583;-74
2023/03/25 12:45:47;;;;;;;28.55;7.28;;;16.80;99.90;;;;;;5030490;28;20371;-74
2023/03/25 12:48:15;;;;;;;25.10;6.72;;;16.90;99.90;;;;;;5031434;28;20084;-73
2023/03/25 12:50:48;;;;;;;19.48;4.68;;;16.50;99.90;;;;;;5027792;28;20097;-73
2023/03/25 12:53:30;;;;;;;17.35;4.22;;;16.10;99.90;;;;;;5031808;28;20043;-73
2023/03/25 12:56:24;;;;;;;24.75;5.90;;;15.70;99.90;;;;;;5025932;28;20072;-73
2023/03/25 12:59:28;;;;;;;23.27;4.70;;;15.40;99.90;;;;;;5030047;28;20025;-73
2023/03/25 13:02:22;;;;;;;25.15;4.35;;;15.40;99.90;;;;;;5020056;28;20113;-73
2023/03/25 13:05:03;;;;;;;17.10;3.03;;;15.40;99.90;;;;;;5024060;28;20167;-73
2023/03/25 13:07:39;;;;;;;25.93;4.73;;;15.30;99.90;;;;;;5023864;28;20052;-73